createdAt,value
2023-05-10T00:00:07.365Z,87.58
2023-05-10T00:03:01.056Z,87.61
2023-05-10T00:05:29.027Z,87.68
2023-05-10T00:07:56.823Z,87.58
2023-05-10T00:10:24.842Z,87.57
2023-05-10T00:12:52.660Z,87.61
2023-05-10T00:15:20.588Z,87.69
2023-05-10T00:17:48.330Z,87.80
2023-05-10T00:20:16.875Z,87.83
2023-05-10T00:22:44.750Z,87.87
2023-05-10T00:25:12.563Z,87.83
2023-05-10T00:27:40.469Z,87.90
2023-05-10T00:30:08.952Z,88.01
2023-05-10T00:32:36.734Z,87.95
2023-05-10T00:35:05.084Z,87.98
2023-05-10T00:37:32.945Z,88.14
2023-05-10T00:40:00.739Z,88.17
2023-05-10T00:42:28.500Z,88.06
2023-05-10T00:44:57.328Z,88.04
2023-05-10T00:47:25.432Z,88.10
2023-05-10T00:49:53.357Z,88.10
2023-05-10T00:52:21.243Z,88.03
2023-05-10T00:54:49.403Z,88.12
2023-05-10T00:57:18.033Z,88.09
2023-05-10T00:59:46.486Z,88.18
2023-05-10T01:02:14.974Z,88.14
2023-05-10T01:04:44.535Z,88.12
2023-05-10T01:07:12.414Z,88.19
2023-05-10T01:09:40.497Z,88.38
2023-05-10T01:12:11.908Z,88.55
2023-05-10T01:14:39.958Z,88.49
2023-05-10T01:17:10.343Z,88.49
2023-05-10T01:19:39.047Z,88.42
2023-05-10T01:22:44.939Z,88.41
2023-05-10T01:25:48.244Z,88.47
2023-05-10T01:29:00.693Z,88.46
2023-05-10T01:31:52.754Z,88.50
2023-05-10T01:34:28.817Z,88.49
2023-05-10T01:37:14.459Z,88.45
2023-05-10T01:39:56.143Z,88.54
2023-05-10T01:42:34.730Z,88.58
2023-05-10T01:45:25.245Z,88.60
2023-05-10T01:48:07.739Z,88.45
2023-05-10T01:50:39.706Z,88.27
2023-05-10T01:53:10.637Z,88.48
2023-05-10T01:55:50.242Z,88.54
2023-05-10T01:58:41.824Z,88.60
2023-05-10T02:01:11.122Z,88.54
2023-05-10T02:03:42.440Z,88.38
2023-05-10T02:06:11.866Z,88.27
2023-05-10T02:08:42.063Z,88.39
2023-05-10T02:11:14.148Z,88.38
2023-05-10T02:13:44.516Z,88.48
2023-05-10T02:16:15.142Z,88.40
2023-05-10T02:18:43.600Z,88.32
2023-05-10T02:21:14.228Z,88.49
2023-05-10T02:23:44.226Z,88.35
2023-05-10T02:26:14.396Z,88.49
2023-05-10T02:28:44.562Z,88.43
2023-05-10T02:31:13.230Z,88.55
2023-05-10T02:33:42.359Z,88.55
2023-05-10T02:36:11.930Z,88.62
2023-05-10T02:38:40.905Z,88.71
2023-05-10T02:41:12.180Z,88.55
2023-05-10T02:43:41.839Z,88.64
2023-05-10T02:46:09.678Z,88.67
2023-05-10T02:48:37.682Z,88.64
2023-05-10T02:51:09.100Z,88.56
2023-05-10T02:53:43.655Z,88.46
2023-05-10T02:56:26.809Z,88.39
2023-05-10T02:58:54.794Z,88.32
2023-05-10T03:01:22.662Z,88.28
2023-05-10T03:03:50.427Z,88.22
2023-05-10T03:06:18.282Z,88.12
2023-05-10T03:08:46.481Z,88.17
2023-05-10T03:12:10.616Z,88.19
2023-05-10T03:14:56.679Z,88.02
2023-05-10T03:17:36.994Z,87.91
2023-05-10T03:20:12.529Z,87.90
2023-05-10T03:22:51.278Z,87.84
2023-05-10T03:25:21.920Z,87.79
2023-05-10T03:27:51.046Z,87.88
2023-05-10T03:30:20.515Z,87.80
2023-05-10T03:32:48.431Z,87.68
2023-05-10T03:35:17.358Z,87.71
2023-05-10T03:37:45.357Z,87.82
2023-05-10T03:40:13.391Z,87.78
2023-05-10T03:42:42.666Z,87.69
2023-05-10T03:45:11.032Z,87.71
2023-05-10T03:47:38.885Z,87.81
2023-05-10T03:50:07.855Z,87.78
2023-05-10T03:52:35.708Z,87.81
2023-05-10T03:55:04.651Z,87.87
2023-05-10T03:57:32.869Z,87.98
2023-05-10T04:00:02.300Z,88.00
2023-05-10T04:02:31.373Z,88.00
2023-05-10T04:04:59.235Z,88.12
2023-05-10T04:07:27.067Z,88.25
2023-05-10T04:09:54.989Z,88.30
2023-05-10T04:12:24.091Z,88.38
2023-05-10T04:14:52.163Z,88.48
2023-05-10T04:17:20.953Z,88.50
2023-05-10T04:19:48.695Z,88.57
2023-05-10T04:22:17.006Z,88.64
2023-05-10T04:24:44.705Z,88.70
2023-05-10T04:27:12.616Z,88.81
2023-05-10T04:29:40.617Z,88.90
2023-05-10T04:32:08.976Z,88.87
2023-05-10T04:34:38.249Z,88.98
2023-05-10T04:37:06.591Z,88.91
2023-05-10T04:39:34.536Z,88.89
2023-05-10T04:42:04.276Z,88.92
2023-05-10T04:44:35.525Z,89.00
2023-05-10T04:47:04.068Z,88.98
2023-05-10T04:49:31.865Z,88.94
2023-05-10T04:51:59.797Z,88.93
2023-05-10T04:54:27.504Z,89.00
2023-05-10T04:56:55.363Z,89.03
2023-05-10T04:59:23.225Z,89.06
2023-05-10T05:01:50.996Z,89.07
2023-05-10T05:04:18.764Z,89.09
2023-05-10T05:06:46.505Z,89.07
2023-05-10T05:09:14.248Z,89.07
2023-05-10T05:11:42.029Z,89.20
2023-05-10T05:14:09.892Z,89.18
2023-05-10T05:16:37.762Z,89.00
2023-05-10T05:19:05.826Z,89.11
2023-05-10T05:21:34.155Z,89.02
2023-05-10T05:24:01.974Z,89.08
2023-05-10T05:26:29.828Z,88.94
2023-05-10T05:28:58.042Z,89.01
2023-05-10T05:31:26.105Z,89.10
2023-05-10T05:33:53.936Z,89.17
2023-05-10T05:36:22.250Z,89.13
2023-05-10T05:38:50.042Z,89.16
2023-05-10T05:41:17.991Z,89.08
2023-05-10T05:43:45.753Z,89.09
2023-05-10T05:46:13.558Z,89.14
2023-05-10T05:48:41.354Z,89.06
2023-05-10T05:51:09.183Z,89.00
2023-05-10T05:53:37.136Z,88.86
2023-05-10T05:56:05.586Z,88.78
2023-05-10T05:58:33.378Z,88.67
2023-05-10T06:01:01.124Z,88.61
2023-05-10T06:03:28.969Z,88.33
2023-05-10T06:05:56.833Z,88.28
2023-05-10T06:08:24.567Z,88.04
2023-05-10T06:10:52.380Z,88.02
2023-05-10T06:13:20.232Z,87.97
2023-05-10T06:15:48.001Z,87.87
2023-05-10T06:18:15.896Z,87.81
2023-05-10T06:20:43.998Z,87.79
2023-05-10T06:23:12.049Z,87.75
2023-05-10T06:25:39.951Z,87.76
2023-05-10T06:28:07.845Z,87.66
2023-05-10T06:30:37.669Z,87.67
2023-05-10T06:33:05.877Z,87.61
2023-05-10T06:35:35.594Z,87.40
2023-05-10T06:38:03.502Z,87.37
2023-05-10T06:40:31.473Z,87.36
2023-05-10T06:42:59.296Z,87.18
2023-05-10T06:45:27.138Z,86.72
2023-05-10T06:47:54.924Z,86.64
2023-05-10T06:50:22.656Z,86.31
2023-05-10T06:52:52.287Z,85.93
2023-05-10T06:55:20.993Z,85.88
2023-05-10T06:57:48.849Z,86.11
2023-05-10T07:00:17.957Z,85.37
2023-05-10T07:02:46.184Z,85.61
2023-05-10T07:05:15.238Z,85.52
2023-05-10T07:07:43.369Z,85.38
2023-05-10T07:10:11.570Z,85.07
2023-05-10T07:12:39.691Z,84.81
2023-05-10T07:15:08.666Z,85.14
2023-05-10T07:17:36.692Z,84.87
2023-05-10T07:20:05.352Z,84.57
2023-05-10T07:22:33.162Z,84.97
2023-05-10T07:25:00.967Z,84.77
2023-05-10T07:27:28.785Z,84.09
2023-05-10T07:29:57.526Z,83.99
2023-05-10T07:32:25.489Z,83.43
2023-05-10T07:34:53.331Z,83.98
2023-05-10T07:37:21.236Z,83.77
2023-05-10T07:39:48.978Z,83.41
2023-05-10T07:42:16.827Z,83.27
2023-05-10T07:44:44.699Z,83.28
2023-05-10T07:47:12.621Z,83.46
2023-05-10T07:49:40.391Z,82.78
2023-05-10T07:52:08.205Z,83.11
2023-05-10T07:54:36.338Z,82.94
2023-05-10T07:57:04.276Z,82.10
2023-05-10T07:59:32.131Z,81.99
2023-05-10T08:02:00.095Z,82.33
2023-05-10T08:04:28.067Z,82.17
2023-05-10T08:06:55.819Z,81.78
2023-05-10T08:09:25.018Z,81.91
2023-05-10T08:11:53.119Z,81.02
2023-05-10T08:14:21.251Z,81.68
2023-05-10T08:16:49.030Z,81.87
2023-05-10T08:19:20.107Z,81.48
2023-05-10T08:21:48.831Z,80.89
2023-05-10T08:24:16.669Z,80.88
2023-05-10T08:26:44.449Z,80.00
2023-05-10T08:29:12.392Z,80.32
2023-05-10T08:31:40.560Z,80.25
2023-05-10T08:34:08.742Z,79.84
2023-05-10T08:36:37.144Z,80.88
2023-05-10T08:39:06.487Z,80.44
2023-05-10T08:41:40.394Z,80.87
2023-05-10T08:44:09.397Z,79.68
2023-05-10T08:46:45.026Z,79.82
2023-05-10T08:49:19.596Z,78.87
2023-05-10T08:51:56.998Z,79.63
2023-05-10T08:54:25.524Z,78.45
2023-05-10T08:56:54.288Z,78.69
2023-05-10T08:59:22.338Z,78.33
2023-05-10T09:01:52.089Z,77.94
2023-05-10T09:04:21.968Z,78.91
2023-05-10T09:06:50.040Z,78.61
2023-05-10T09:09:20.409Z,78.69
2023-05-10T09:11:48.940Z,77.28
2023-05-10T09:14:18.330Z,76.77
2023-05-10T09:16:46.806Z,76.10
2023-05-10T09:19:14.840Z,76.26
2023-05-10T09:21:42.880Z,77.84
2023-05-10T09:24:10.644Z,77.70
2023-05-10T09:26:51.646Z,76.67
2023-05-10T09:29:19.628Z,76.40
2023-05-10T09:31:53.061Z,76.23
2023-05-10T09:34:32.062Z,75.71
2023-05-10T09:37:03.741Z,75.89
2023-05-10T09:39:34.075Z,76.19
2023-05-10T09:42:08.791Z,74.42
2023-05-10T09:44:37.284Z,73.89
2023-05-10T09:47:05.599Z,73.67
2023-05-10T09:49:34.305Z,72.55
2023-05-10T09:52:08.154Z,73.90
2023-05-10T09:54:37.081Z,73.90
2023-05-10T09:57:04.977Z,70.98
2023-05-10T09:59:36.321Z,71.45
2023-05-10T10:02:04.474Z,71.12
2023-05-10T10:04:33.249Z,71.60
2023-05-10T10:07:06.077Z,71.20
2023-05-10T10:09:35.939Z,72.02
2023-05-10T10:12:04.847Z,71.48
2023-05-10T10:14:32.787Z,70.68
2023-05-10T10:19:36.648Z,68.19
2023-05-10T10:22:05.428Z,66.86
2023-05-10T10:24:33.396Z,69.23
2023-05-10T10:27:15.434Z,66.73
2023-05-10T10:29:59.384Z,66.80
2023-05-10T10:32:43.438Z,65.54
2023-05-10T10:35:11.388Z,65.73
2023-05-10T10:37:47.392Z,66.07
2023-05-10T10:40:26.767Z,65.48
2023-05-10T10:42:56.450Z,65.32
2023-05-10T10:45:26.429Z,63.59
2023-05-10T10:48:22.819Z,62.29
2023-05-10T10:51:01.439Z,63.92
2023-05-10T10:53:29.872Z,64.87
2023-05-10T10:56:08.807Z,66.16
2023-05-10T10:58:39.687Z,64.82
2023-05-10T11:01:19.522Z,65.74
2023-05-10T11:04:20.138Z,65.40
2023-05-10T11:06:48.190Z,65.50
2023-05-10T11:09:15.910Z,63.43
2023-05-10T11:11:56.420Z,63.03
2023-05-10T11:14:24.995Z,63.16
2023-05-10T11:16:53.100Z,62.95
2023-05-10T11:19:21.055Z,63.42
2023-05-10T11:22:16.453Z,63.25
2023-05-10T11:24:59.545Z,63.64
2023-05-10T11:27:27.417Z,64.56
2023-05-10T11:29:55.279Z,64.39
2023-05-10T11:32:23.697Z,65.37
2023-05-10T11:34:51.444Z,66.48
2023-05-10T11:37:19.518Z,66.85
2023-05-10T11:39:50.279Z,66.41
2023-05-10T11:42:20.515Z,67.48
2023-05-10T11:44:48.953Z,67.49
2023-05-10T11:47:17.179Z,67.11
2023-05-10T11:49:46.076Z,68.25
2023-05-10T11:52:13.908Z,68.97
2023-05-10T11:54:55.799Z,69.10
2023-05-10T11:57:29.065Z,68.42
2023-05-10T11:59:58.243Z,68.02
2023-05-10T12:02:26.726Z,66.54
2023-05-10T12:04:57.286Z,66.37
2023-05-10T12:07:27.539Z,63.89
2023-05-10T12:10:11.173Z,62.56
2023-05-10T12:12:44.319Z,62.71
2023-05-10T12:15:24.069Z,62.83
2023-05-10T12:17:52.618Z,62.64
2023-05-10T12:20:23.516Z,61.64
2023-05-10T12:22:55.032Z,61.37
2023-05-10T12:25:30.315Z,61.86
2023-05-10T12:28:01.898Z,62.31
2023-05-10T12:30:34.444Z,61.83
2023-05-10T12:33:15.858Z,62.30
2023-05-10T12:35:55.314Z,61.77
2023-05-10T12:38:36.604Z,61.78
2023-05-10T12:41:06.232Z,61.99
2023-05-10T12:43:35.984Z,62.45
2023-05-10T12:46:15.763Z,64.19
2023-05-10T12:48:46.384Z,65.73
2023-05-10T12:51:16.720Z,66.47
2023-05-10T12:53:48.018Z,66.38
2023-05-10T12:56:17.667Z,68.00
2023-05-10T12:58:49.107Z,68.12
2023-05-10T13:01:17.074Z,68.07
2023-05-10T13:03:44.944Z,67.54
2023-05-10T13:06:14.516Z,66.46
2023-05-10T13:08:42.368Z,66.19
2023-05-10T13:11:10.517Z,66.45
2023-05-10T13:13:38.295Z,64.98
2023-05-10T13:16:06.677Z,63.30
2023-05-10T13:18:34.574Z,63.73
2023-05-10T13:21:04.858Z,63.37
2023-05-10T13:23:32.720Z,63.03
2023-05-10T13:26:00.738Z,61.41
2023-05-10T13:28:28.677Z,61.80
2023-05-10T13:30:56.627Z,61.50
2023-05-10T13:33:24.542Z,61.51
2023-05-10T13:35:54.422Z,61.12
2023-05-10T13:38:23.337Z,58.85
2023-05-10T13:40:53.743Z,59.13
2023-05-10T13:43:21.808Z,60.32
2023-05-10T13:45:49.570Z,60.73
2023-05-10T13:48:17.349Z,61.25
2023-05-10T13:50:45.241Z,61.14
2023-05-10T13:53:13.528Z,62.69
2023-05-10T13:55:41.458Z,64.46
2023-05-10T13:58:09.263Z,64.31
2023-05-10T14:00:37.456Z,64.78
2023-05-10T14:03:06.313Z,65.46
2023-05-10T14:05:34.121Z,65.91
2023-05-10T14:08:02.051Z,66.64
2023-05-10T14:10:29.798Z,66.81
2023-05-10T14:12:57.743Z,67.72
2023-05-10T14:15:25.484Z,67.13
2023-05-10T14:17:53.398Z,67.34
2023-05-10T14:20:21.383Z,66.15
2023-05-10T14:22:49.187Z,66.17
2023-05-10T14:25:17.392Z,64.74
2023-05-10T14:27:45.285Z,65.08
2023-05-10T14:30:13.502Z,64.94
2023-05-10T14:32:41.319Z,64.26
2023-05-10T14:35:12.116Z,64.97
2023-05-10T14:37:40.985Z,64.81
2023-05-10T14:40:10.327Z,65.13
2023-05-10T14:42:38.199Z,65.32
2023-05-10T14:45:06.718Z,65.24
2023-05-10T14:47:34.486Z,65.11
2023-05-10T14:50:02.910Z,64.90
2023-05-10T14:52:31.762Z,65.14
2023-05-10T14:55:02.338Z,65.51
2023-05-10T14:57:30.749Z,65.22
2023-05-10T14:59:58.632Z,64.49
2023-05-10T15:02:26.903Z,62.91
2023-05-10T15:04:55.193Z,63.39
2023-05-10T15:07:23.342Z,63.61
2023-05-10T15:09:52.932Z,63.87
2023-05-10T15:12:20.837Z,63.86
2023-05-10T15:14:48.575Z,63.02
2023-05-10T15:17:17.233Z,63.77
2023-05-10T15:19:45.100Z,64.78
2023-05-10T15:22:12.926Z,65.49
2023-05-10T15:24:40.718Z,66.01
2023-05-10T15:27:08.735Z,66.77
2023-05-10T15:29:36.821Z,67.38
2023-05-10T15:32:05.004Z,67.88
2023-05-10T15:34:34.842Z,67.49
2023-05-10T15:37:03.869Z,67.98
2023-05-10T15:39:31.729Z,68.50
2023-05-10T15:41:59.909Z,68.17
2023-05-10T15:44:27.640Z,67.03
2023-05-10T15:46:55.495Z,66.36
2023-05-10T15:49:23.392Z,66.01
2023-05-10T15:51:51.176Z,65.16
2023-05-10T15:54:18.971Z,63.95
2023-05-10T15:56:46.742Z,64.37
2023-05-10T15:59:14.506Z,64.40
2023-05-10T16:01:42.387Z,64.73
2023-05-10T16:04:10.156Z,64.14
2023-05-10T16:06:38.041Z,63.99
2023-05-10T16:09:05.817Z,63.94
2023-05-10T16:11:34.194Z,64.11
2023-05-10T16:14:02.220Z,63.16
2023-05-10T16:16:30.975Z,63.88
2023-05-10T16:19:01.788Z,61.74
2023-05-10T16:21:33.138Z,59.33
2023-05-10T16:24:01.936Z,60.20
2023-05-10T16:26:30.964Z,58.99
2023-05-10T16:28:59.855Z,59.10
2023-05-10T16:31:28.804Z,58.94
2023-05-10T16:33:57.856Z,59.33
2023-05-10T16:36:27.479Z,59.35
2023-05-10T16:38:56.645Z,59.54
2023-05-10T16:41:27.054Z,59.61
2023-05-10T16:43:59.614Z,58.33
2023-05-10T16:46:30.127Z,58.68
2023-05-10T16:49:00.567Z,58.85
2023-05-10T16:51:30.872Z,59.61
2023-05-10T16:54:00.248Z,59.93
2023-05-10T16:56:31.785Z,59.55
2023-05-10T16:59:01.185Z,59.73
2023-05-10T17:01:30.041Z,59.96
2023-05-10T17:03:59.066Z,60.20
2023-05-10T17:06:27.854Z,60.95
2023-05-10T17:08:56.546Z,61.47
2023-05-10T17:11:25.263Z,61.66
2023-05-10T17:13:55.131Z,62.01
2023-05-10T17:16:24.472Z,61.38
2023-05-10T17:18:54.780Z,61.88
2023-05-10T17:21:23.790Z,61.92
2023-05-10T17:23:52.636Z,61.96
2023-05-10T17:26:23.008Z,61.79
2023-05-10T17:28:56.661Z,62.27
2023-05-10T17:31:28.402Z,62.35
2023-05-10T17:33:57.313Z,62.43
2023-05-10T17:36:26.276Z,62.51
2023-05-10T17:38:55.320Z,62.65
2023-05-10T17:41:24.273Z,63.07
2023-05-10T17:43:53.506Z,63.32
2023-05-10T17:46:22.886Z,63.52
2023-05-10T17:48:51.857Z,63.76
2023-05-10T17:51:21.158Z,63.68
2023-05-10T17:53:50.131Z,64.25
2023-05-10T17:56:19.537Z,65.05
2023-05-10T17:58:49.921Z,65.70
2023-05-10T18:01:21.426Z,65.90
2023-05-10T18:03:52.428Z,66.18
2023-05-10T18:06:23.088Z,66.38
2023-05-10T18:08:51.816Z,66.78
2023-05-10T18:11:20.426Z,66.51
2023-05-10T18:13:49.102Z,65.84
2023-05-10T18:16:17.630Z,66.02
2023-05-10T18:18:46.307Z,66.31
2023-05-10T18:21:14.695Z,66.34
2023-05-10T18:23:43.471Z,66.48
2023-05-10T18:26:13.514Z,66.30
2023-05-10T18:28:42.618Z,66.52
2023-05-10T18:31:11.352Z,66.55
2023-05-10T18:33:39.919Z,67.26
2023-05-10T18:36:08.961Z,67.68
2023-05-10T18:38:38.255Z,67.92
2023-05-10T18:41:08.231Z,68.01
2023-05-10T18:43:37.093Z,68.12
2023-05-10T18:46:05.897Z,68.07
2023-05-10T18:48:34.381Z,68.29
2023-05-10T18:51:03.703Z,68.83
2023-05-10T18:53:33.245Z,69.31
2023-05-10T18:56:02.093Z,68.95
2023-05-10T18:58:31.843Z,69.15
2023-05-10T19:01:00.905Z,69.28
2023-05-10T19:03:30.702Z,69.61
2023-05-10T19:05:59.943Z,70.31
2023-05-10T19:08:30.076Z,70.45
2023-05-10T19:10:59.927Z,70.79
2023-05-10T19:13:29.431Z,72.08
2023-05-10T19:16:11.255Z,72.10
2023-05-10T19:18:44.939Z,73.81
2023-05-10T19:21:15.873Z,75.00
2023-05-10T19:23:45.717Z,75.99
2023-05-10T19:26:17.902Z,76.13
2023-05-10T19:28:48.912Z,76.35
2023-05-10T19:31:19.916Z,76.89
2023-05-10T19:33:51.507Z,77.42
2023-05-10T19:36:22.228Z,77.65
2023-05-10T19:38:53.951Z,77.23
2023-05-10T19:41:22.481Z,77.18
2023-05-10T19:43:52.836Z,77.22
2023-05-10T19:46:23.283Z,77.41
2023-05-10T19:48:53.230Z,77.77
2023-05-10T19:51:23.730Z,77.74
2023-05-10T19:53:52.978Z,77.80
2023-05-10T19:56:22.125Z,77.75
2023-05-10T19:58:51.684Z,78.26
2023-05-10T20:01:20.792Z,78.49
2023-05-10T20:03:49.688Z,78.52
2023-05-10T20:06:18.651Z,78.63
2023-05-10T20:08:48.793Z,78.90
2023-05-10T20:11:18.749Z,78.89
2023-05-10T20:13:47.775Z,78.67
2023-05-10T20:16:19.099Z,78.97
2023-05-10T20:18:48.475Z,79.06
2023-05-10T20:21:17.634Z,79.04
2023-05-10T20:23:48.147Z,79.40
2023-05-10T20:26:18.863Z,79.56
2023-05-10T20:28:48.631Z,79.57
2023-05-10T20:31:17.918Z,79.39
2023-05-10T20:33:47.036Z,79.61
2023-05-10T20:36:16.939Z,79.55
2023-05-10T20:38:45.998Z,79.57
2023-05-10T20:41:15.561Z,79.88
2023-05-10T20:43:44.401Z,80.06
2023-05-10T20:46:13.335Z,79.84
2023-05-10T20:48:42.162Z,79.58
2023-05-10T20:51:11.309Z,79.93
2023-05-10T20:53:40.148Z,79.92
2023-05-10T20:56:09.127Z,79.90
2023-05-10T20:58:38.484Z,80.07
2023-05-10T21:01:07.357Z,80.15
2023-05-10T21:03:36.198Z,80.28
2023-05-10T21:06:05.184Z,80.14
2023-05-10T21:08:34.326Z,80.13
2023-05-10T21:11:07.098Z,79.97
2023-05-10T21:13:35.617Z,79.94
2023-05-10T21:16:05.502Z,80.07
2023-05-10T21:18:34.557Z,80.14
2023-05-10T21:21:03.742Z,80.13
2023-05-10T21:23:34.453Z,80.45
2023-05-10T21:26:05.905Z,80.68
2023-05-10T21:28:34.852Z,80.72
2023-05-10T21:31:03.663Z,80.85
2023-05-10T21:33:31.945Z,81.00
2023-05-10T21:36:00.305Z,81.00
2023-05-10T21:38:28.692Z,81.22
2023-05-10T21:40:56.886Z,81.33
2023-05-10T21:43:24.783Z,81.31
2023-05-10T21:45:52.991Z,81.54
2023-05-10T21:48:20.973Z,81.56
2023-05-10T21:50:48.810Z,81.54
2023-05-10T21:53:16.686Z,81.44
2023-05-10T21:55:44.446Z,81.26
2023-05-10T21:58:12.251Z,81.02
2023-05-10T22:00:40.001Z,80.89
2023-05-10T22:03:07.897Z,80.69
2023-05-10T22:05:35.725Z,80.77
2023-05-10T22:08:03.633Z,80.48
2023-05-10T22:10:31.650Z,80.72
2023-05-10T22:13:00.213Z,80.47
2023-05-10T22:15:28.172Z,80.41
2023-05-10T22:17:56.137Z,80.37
2023-05-10T22:20:23.962Z,80.37
2023-05-10T22:22:54.504Z,80.40
2023-05-10T22:25:22.432Z,80.18
2023-05-10T22:27:50.225Z,80.17
2023-05-10T22:30:19.821Z,80.18
2023-05-10T22:32:48.058Z,80.44
2023-05-10T22:35:16.178Z,80.60
2023-05-10T22:37:44.001Z,80.48
2023-05-10T22:40:13.551Z,80.32
2023-05-10T22:42:41.295Z,80.29
2023-05-10T22:45:09.915Z,80.53
2023-05-10T22:47:38.060Z,80.61
2023-05-10T22:50:06.986Z,80.82
2023-05-10T22:52:34.818Z,80.74
2023-05-10T22:55:02.578Z,80.49
2023-05-10T22:57:31.100Z,80.46
2023-05-10T22:59:58.908Z,80.72
2023-05-10T23:02:27.289Z,80.71
2023-05-10T23:04:55.117Z,80.57
2023-05-10T23:07:23.950Z,80.49
2023-05-10T23:09:52.361Z,80.66
2023-05-10T23:12:20.199Z,80.63
2023-05-10T23:14:48.154Z,80.63
2023-05-10T23:17:16.549Z,80.58
2023-05-10T23:19:44.355Z,80.70
2023-05-10T23:22:12.459Z,80.66
2023-05-10T23:24:40.601Z,80.59
2023-05-10T23:27:09.318Z,80.60
2023-05-10T23:29:37.069Z,80.83
2023-05-10T23:32:06.176Z,80.72
2023-05-10T23:34:33.941Z,80.89
2023-05-10T23:37:02.473Z,80.81
2023-05-10T23:39:30.295Z,80.78
2023-05-10T23:41:58.122Z,80.62
2023-05-10T23:44:25.990Z,80.70
2023-05-10T23:46:53.825Z,80.90
2023-05-10T23:49:21.550Z,81.05
2023-05-10T23:51:49.350Z,81.00
2023-05-10T23:54:17.219Z,80.94
2023-05-10T23:56:44.972Z,80.99
2023-05-10T23:59:12.839Z,81.24
